Time;durP1;ratioP1;P1;durP2;ratioP2;P2;SDS_P1;SDS_P2;PMS_P1;PMS_P2;Temp;Humidity;BMP_temperature;BMP_pressure;BME280_temperature;BME280_humidity;BME280_pressure;Samples;Min_cycle;Max_cycle;Signal;HPM_P1;HPM_P2
2022/11/27 00:01:22;;;;;;;12.25;6.57;;;14.40;73.20;;;;;;5121738;28;20018;-68
2022/11/27 00:03:48;;;;;;;15.00;6.30;;;14.40;73.20;;;;;;5121767;28;20024;-67
2022/11/27 00:06:17;;;;;;;13.63;6.63;;;14.40;73.10;;;;;;5121517;28;20023;-67
2022/11/27 00:08:44;;;;;;;12.23;6.13;;;14.40;73.10;;;;;;5121770;28;20027;-67
2022/11/27 00:11:17;;;;;;;14.52;6.13;;;14.40;73.10;;;;;;5121612;28;20031;-67
2022/11/27 00:13:42;;;;;;;15.93;6.10;;;14.40;73.10;;;;;;5121691;28;20450;-67
2022/11/27 00:16:09;;;;;;;13.20;5.90;;;14.40;73.10;;;;;;5121517;28;20043;-67
2022/11/27 00:18:35;;;;;;;16.63;6.97;;;14.40;73.10;;;;;;5121604;28;20083;-67
2022/11/27 00:21:10;;;;;;;17.85;7.28;;;14.40;73.00;;;;;;5121540;28;20035;-67
2022/11/27 00:23:36;;;;;;;12.07;5.68;;;14.40;73.50;;;;;;5121562;28;20024;-67
2022/11/27 00:26:03;;;;;;;19.55;7.22;;;14.40;73.00;;;;;;5121517;28;20024;-67
2022/11/27 00:28:29;;;;;;;10.45;5.35;;;14.40;72.80;;;;;;5121536;28;20038;-67
2022/11/27 00:31:04;;;;;;;20.02;7.70;;;14.40;72.70;;;;;;5121461;28;20035;-67
2022/11/27 00:33:30;;;;;;;12.57;6.30;;;14.40;72.80;;;;;;5121510;28;20031;-67
2022/11/27 00:35:56;;;;;;;16.77;6.32;;;14.40;73.00;;;;;;5121615;28;20031;-67
2022/11/27 00:38:21;;;;;;;12.60;5.70;;;14.40;73.00;;;;;;5121411;28;20027;-67
2022/11/27 00:40:47;;;;;;;16.67;5.93;;;14.40;73.20;;;;;;5121345;28;20019;-67
2022/11/27 00:43:13;;;;;;;13.27;6.35;;;14.30;73.40;;;;;;5121302;28;20323;-67
2022/11/27 00:45:39;;;;;;;13.45;6.72;;;14.40;73.80;;;;;;5121336;28;20239;-67
2022/11/27 00:48:05;;;;;;;13.73;6.60;;;14.30;73.80;;;;;;5121343;28;20064;-69
2022/11/27 00:50:31;;;;;;;12.15;6.07;;;14.30;73.90;;;;;;5121303;28;20027;-67
2022/11/27 00:52:58;;;;;;;11.55;5.80;;;14.30;73.90;;;;;;5121304;28;20030;-67
2022/11/27 00:55:24;;;;;;;10.50;5.80;;;14.30;73.90;;;;;;5121003;28;20052;-67
2022/11/27 00:57:49;;;;;;;14.20;5.93;;;14.30;73.90;;;;;;5121219;28;20043;-67
2022/11/27 01:00:16;;;;;;;14.45;5.70;;;14.40;73.80;;;;;;5121195;28;20034;-68
2022/11/27 01:02:42;;;;;;;11.35;6.35;;;14.40;73.70;;;;;;5121241;28;20020;-67
2022/11/27 01:05:08;;;;;;;11.98;6.22;;;14.40;73.60;;;;;;5121243;28;20065;-67
2022/11/27 01:07:34;;;;;;;15.98;6.85;;;14.40;73.60;;;;;;5121152;28;20031;-67
2022/11/27 01:10:00;;;;;;;13.82;5.88;;;14.40;73.50;;;;;;5121140;28;20038;-67
2022/11/27 01:12:25;;;;;;;12.40;5.93;;;14.40;73.40;;;;;;5121162;28;20027;-67
2022/11/27 01:14:51;;;;;;;14.65;5.65;;;14.40;73.40;;;;;;5121054;28;20035;-67
2022/11/27 01:17:17;;;;;;;12.45;5.68;;;14.40;73.40;;;;;;5121087;28;20024;-67
2022/11/27 01:19:43;;;;;;;9.68;6.25;;;14.40;73.40;;;;;;5123441;28;20024;-67
2022/11/27 01:22:08;;;;;;;9.02;5.30;;;14.40;73.40;;;;;;5124691;28;20203;-67
2022/11/27 01:24:34;;;;;;;15.65;5.82;;;14.40;73.40;;;;;;5124651;28;20065;-68
2022/11/27 01:27:00;;;;;;;9.65;5.82;;;14.40;73.30;;;;;;5124563;28;20034;-66
2022/11/27 01:29:26;;;;;;;8.57;5.78;;;14.40;73.30;;;;;;5124573;28;20031;-69
2022/11/27 01:31:51;;;;;;;8.57;5.82;;;14.40;73.20;;;;;;5124495;28;20103;-67
2022/11/27 01:34:18;;;;;;;9.10;6.07;;;14.40;73.20;;;;;;5124403;28;20031;-67
2022/11/27 01:36:44;;;;;;;12.93;5.72;;;14.40;73.20;;;;;;5124362;28;20049;-67
2022/11/27 01:39:20;;;;;;;11.10;5.80;;;14.40;73.00;;;;;;5124290;28;20028;-67
2022/11/27 01:41:48;;;;;;;11.05;5.47;;;14.40;73.00;;;;;;5124289;28;20027;-67
2022/11/27 01:44:23;;;;;;;12.57;6.20;;;14.40;73.00;;;;;;5124238;28;20018;-67
2022/11/27 01:46:51;;;;;;;8.52;4.90;;;14.40;72.80;;;;;;5124220;28;20011;-67
2022/11/27 01:49:28;;;;;;;11.10;6.32;;;14.40;73.00;;;;;;5124190;28;20498;-68
2022/11/27 01:52:12;;;;;;;12.48;5.32;;;14.40;73.10;;;;;;5124061;28;20327;-66
2022/11/27 01:54:53;;;;;;;12.73;5.43;;;14.30;73.30;;;;;;5123771;28;20051;-67
2022/11/27 01:57:27;;;;;;;10.50;5.45;;;14.30;73.50;;;;;;5124032;28;20242;-66
2022/11/27 01:59:56;;;;;;;13.35;5.88;;;14.30;73.50;;;;;;5124027;28;20106;-67
2022/11/27 02:02:22;;;;;;;;;;;14.40;73.60;;;;;;5124343;28;20308;-67
2022/11/27 02:04:48;;;;;;;11.50;5.72;;;14.30;73.50;;;;;;5123816;28;19908;-67
2022/11/27 02:07:14;;;;;;;10.63;5.63;;;14.30;73.80;;;;;;5123761;28;20031;-66
2022/11/27 02:09:40;;;;;;;9.43;5.45;;;14.30;73.70;;;;;;5123760;28;20015;-67
2022/11/27 02:12:26;;;;;;;15.02;5.65;;;14.30;73.70;;;;;;5123695;28;20034;-67
2022/11/27 02:15:01;;;;;;;9.15;5.18;;;14.30;73.70;;;;;;5123699;28;20019;-67
2022/11/27 02:17:32;;;;;;;11.15;5.10;;;14.30;73.50;;;;;;5123612;28;20030;-68
2022/11/27 02:20:26;;;;;;;10.05;4.60;;;14.40;74.10;;;;;;5123548;28;20023;-67
2022/11/27 02:23:17;;;;;;;12.45;5.68;;;14.40;73.20;;;;;;5123567;28;20011;-67
2022/11/27 02:25:45;;;;;;;13.80;5.78;;;14.40;73.20;;;;;;5123493;28;20256;-67
2022/11/27 02:28:23;;;;;;;9.98;5.30;;;14.40;73.20;;;;;;5123443;28;20031;-67
2022/11/27 02:30:57;;;;;;;8.43;5.28;;;14.40;73.20;;;;;;5123277;28;20027;-67
2022/11/27 02:33:23;;;;;;;9.23;5.40;;;14.40;73.20;;;;;;5123284;28;20339;-67
2022/11/27 02:36:02;;;;;;;13.93;5.78;;;14.40;73.20;;;;;;5123129;28;20143;-67
2022/11/27 02:38:38;;;;;;;10.65;6.38;;;14.40;73.10;;;;;;5123235;28;20046;-67
2022/11/27 02:41:32;;;;;;;8.88;4.80;;;14.40;73.10;;;;;;5123266;28;20018;-69
2022/11/27 02:44:01;;;;;;;13.32;6.15;;;14.40;73.10;;;;;;5123123;28;20202;-67
2022/11/27 02:46:27;;;;;;;;;;;14.40;73.10;;;;;;5123486;28;20031;-67
2022/11/27 02:49:01;;;;;;;10.23;5.13;;;14.40;73.10;;;;;;5122967;28;19939;-67
2022/11/27 02:51:37;;;;;;;8.63;5.18;;;14.30;73.20;;;;;;5122966;28;20032;-67
2022/11/27 02:54:08;;;;;;;12.65;6.03;;;14.40;73.20;;;;;;5122623;28;20028;-67
2022/11/27 02:56:36;;;;;;;7.15;4.45;;;14.40;73.00;;;;;;5122797;28;20027;-67
2022/11/27 02:59:06;;;;;;;11.15;6.03;;;14.40;73.00;;;;;;5122840;28;20318;-67
2022/11/27 03:01:37;;;;;;;11.18;5.72;;;14.40;73.10;;;;;;5122864;28;20361;-67
2022/11/27 03:04:08;;;;;;;7.65;5.03;;;14.40;73.10;;;;;;5122782;28;20012;-67
2022/11/27 03:06:46;;;;;;;11.80;5.60;;;14.30;73.80;;;;;;5122687;28;20035;-67
2022/11/27 03:09:25;;;;;;;9.98;4.65;;;14.40;73.30;;;;;;5122948;28;20023;-68
2022/11/27 03:11:51;;;;;;;9.90;5.13;;;14.30;73.60;;;;;;5122599;28;20038;-67
2022/11/27 03:14:19;;;;;;;9.00;4.90;;;14.30;73.70;;;;;;5122361;28;20035;-67
2022/11/27 03:16:54;;;;;;;7.80;4.97;;;14.30;73.70;;;;;;5122439;28;20043;-67
2022/11/27 03:19:29;;;;;;;11.77;5.18;;;14.30;73.70;;;;;;5122464;28;20023;-67
2022/11/27 03:22:00;;;;;;;10.85;5.55;;;14.40;73.80;;;;;;5122423;28;20016;-67
2022/11/27 03:24:28;;;;;;;8.77;5.78;;;14.30;73.60;;;;;;5122385;28;20349;-67
2022/11/27 03:26:56;;;;;;;10.50;5.72;;;14.40;73.70;;;;;;5122361;28;20024;-67
2022/11/27 03:29:56;;;;;;;11.82;5.35;;;14.30;73.80;;;;;;5122266;28;20031;-67
2022/11/27 03:32:22;;;;;;;11.57;5.53;;;14.40;73.80;;;;;;5067800;28;20073;-67
2022/11/27 03:34:49;;;;;;;9.07;4.65;;;14.30;73.80;;;;;;5122031;28;20019;-67
2022/11/27 03:37:15;;;;;;;10.93;6.07;;;14.30;73.60;;;;;;5122111;28;20023;-67
2022/11/27 03:39:41;;;;;;;10.95;5.38;;;14.30;73.50;;;;;;5122090;28;20029;-67
2022/11/27 03:42:19;;;;;;;12.05;5.43;;;14.40;73.40;;;;;;5121581;28;20042;-67
2022/11/27 03:45:09;;;;;;;11.48;5.00;;;14.40;73.30;;;;;;5122020;28;20027;-67
2022/11/27 03:48:11;;;;;;;10.15;4.85;;;14.40;73.20;;;;;;5122023;28;20038;-67
2022/11/27 03:51:01;;;;;;;9.07;5.18;;;14.40;73.20;;;;;;5121984;28;20082;-68
2022/11/27 03:53:46;;;;;;;8.10;4.97;;;14.40;73.10;;;;;;5121836;28;20039;-69
2022/11/27 03:56:29;;;;;;;9.82;5.80;;;14.40;73.20;;;;;;5121595;28;20054;-67
2022/11/27 03:59:19;;;;;;;9.13;5.00;;;14.30;73.20;;;;;;5121885;28;20024;-67
2022/11/27 04:01:45;;;;;;;8.75;4.68;;;14.40;73.10;;;;;;5121835;28;20208;-67
2022/11/27 04:04:11;;;;;;;7.43;4.70;;;14.40;73.00;;;;;;5121714;28;20087;-67
2022/11/27 04:06:36;;;;;;;7.80;5.40;;;14.40;73.00;;;;;;5121748;28;20350;-66
2022/11/27 04:09:03;;;;;;;7.60;4.85;;;14.40;72.80;;;;;;5121789;28;20321;-67
2022/11/27 04:11:30;;;;;;;11.10;4.68;;;14.40;72.80;;;;;;5121710;28;20053;-67
2022/11/27 04:13:55;;;;;;;9.80;5.65;;;14.40;72.80;;;;;;5121653;28;20027;-67
2022/11/27 04:16:21;;;;;;;10.32;5.22;;;14.40;72.90;;;;;;5121533;28;20032;-67
2022/11/27 04:18:47;;;;;;;11.15;4.85;;;14.40;72.90;;;;;;5121604;28;20023;-67
2022/11/27 04:21:13;;;;;;;8.88;4.43;;;14.40;73.10;;;;;;5121583;28;20043;-67
2022/11/27 04:23:39;;;;;;;6.72;4.93;;;14.40;73.20;;;;;;5121603;28;20023;-67
2022/11/27 04:26:05;;;;;;;7.38;4.80;;;14.30;73.30;;;;;;5121570;28;20065;-67
2022/11/27 04:28:31;;;;;;;8.75;5.20;;;14.30;73.50;;;;;;5121520;28;20027;-69
2022/11/27 04:30:57;;;;;;;7.30;4.18;;;14.30;73.60;;;;;;5121520;28;20262;-66
2022/11/27 04:33:23;;;;;;;10.52;5.07;;;14.30;73.60;;;;;;5121509;28;20053;-66
2022/11/27 04:35:50;;;;;;;9.52;5.15;;;14.30;73.60;;;;;;5121392;28;20365;-67
2022/11/27 04:38:16;;;;;;;9.95;5.68;;;14.30;73.60;;;;;;5121404;28;20219;-67
2022/11/27 04:40:42;;;;;;;9.90;5.85;;;14.30;73.50;;;;;;5121494;28;20028;-67
2022/11/27 04:43:08;;;;;;;13.82;4.68;;;14.40;73.70;;;;;;5121452;28;20079;-67
2022/11/27 04:45:35;;;;;;;7.35;4.72;;;14.30;73.60;;;;;;5121428;28;20349;-67
2022/11/27 04:48:01;;;;;;;7.43;4.47;;;14.30;73.50;;;;;;5121373;28;20027;-67
2022/11/27 04:50:27;;;;;;;6.65;4.32;;;14.40;73.50;;;;;;5121393;28;20031;-67
2022/11/27 04:52:53;;;;;;;7.72;4.97;;;14.40;73.40;;;;;;5121325;28;20031;-68
2022/11/27 04:55:19;;;;;;;8.25;4.70;;;14.40;73.20;;;;;;5124629;28;20047;-67
2022/11/27 04:57:44;;;;;;;8.95;4.63;;;14.40;73.20;;;;;;5125207;28;20031;-67
2022/11/27 05:00:11;;;;;;;7.60;4.97;;;14.40;73.10;;;;;;5125166;28;20083;-67
2022/11/27 05:02:36;;;;;;;7.57;4.32;;;14.40;73.10;;;;;;5125074;28;20083;-67
2022/11/27 05:05:03;;;;;;;8.50;4.90;;;14.40;73.10;;;;;;5125092;28;20028;-68
2022/11/27 05:07:29;;;;;;;9.93;5.20;;;14.40;73.10;;;;;;5124988;28;20082;-67
2022/11/27 05:09:54;;;;;;;10.63;4.78;;;14.40;73.00;;;;;;5124999;28;20285;-67
2022/11/27 05:12:20;;;;;;;7.70;4.80;;;14.40;72.90;;;;;;5124911;28;20031;-67
2022/11/27 05:14:46;;;;;;;8.55;4.80;;;14.40;72.90;;;;;;5124839;28;20047;-67
2022/11/27 05:17:12;;;;;;;6.80;4.60;;;14.40;73.00;;;;;;5124801;28;20027;-67
2022/11/27 05:19:37;;;;;;;6.72;4.43;;;14.40;72.90;;;;;;5124739;28;20206;-69
2022/11/27 05:22:03;;;;;;;10.35;4.85;;;14.40;73.00;;;;;;5124701;28;20028;-67
2022/11/27 05:24:29;;;;;;;6.45;4.65;;;14.40;72.80;;;;;;5124660;28;20082;-67
2022/11/27 05:26:56;;;;;;;8.73;4.68;;;14.40;72.80;;;;;;5124615;28;20028;-67
2022/11/27 05:29:22;;;;;;;8.40;4.78;;;14.40;72.80;;;;;;5124571;28;20326;-66
2022/11/27 05:31:48;;;;;;;7.65;4.60;;;14.40;72.80;;;;;;5124500;28;20357;-67
2022/11/27 05:34:14;;;;;;;8.32;4.75;;;14.40;72.90;;;;;;5124476;28;20023;-67
2022/11/27 05:36:40;;;;;;;7.25;4.35;;;14.40;73.20;;;;;;5124359;28;20281;-67
2022/11/27 05:39:08;;;;;;;6.43;4.60;;;14.30;73.40;;;;;;5124414;28;20012;-67
2022/11/27 05:41:36;;;;;;;7.40;4.83;;;14.30;73.50;;;;;;5124359;28;20031;-67
2022/11/27 05:44:02;;;;;;;11.07;5.03;;;14.30;73.50;;;;;;5124293;28;20021;-67
2022/11/27 05:46:28;;;;;;;10.57;4.82;;;14.30;74.10;;;;;;5124219;28;20028;-67
2022/11/27 05:48:54;;;;;;;8.38;4.78;;;14.30;73.40;;;;;;5124166;28;20043;-67
2022/11/27 05:51:20;;;;;;;10.45;5.00;;;14.30;73.50;;;;;;5105760;28;20383;-67
2022/11/27 05:53:46;;;;;;;7.57;5.07;;;14.30;73.50;;;;;;5124088;28;20035;-67
2022/11/27 05:56:14;;;;;;;6.93;4.65;;;14.30;73.60;;;;;;5123822;28;20223;-67
2022/11/27 05:58:42;;;;;;;5.63;4.07;;;14.30;73.50;;;;;;5124002;28;20023;-67
2022/11/27 06:01:09;;;;;;;8.63;4.45;;;14.30;73.40;;;;;;5123789;28;20027;-67
2022/11/27 06:03:37;;;;;;;7.70;4.05;;;14.30;73.30;;;;;;5123890;28;20027;-67
2022/11/27 06:06:29;;;;;;;5.18;4.15;;;14.40;73.20;;;;;;5123476;28;20088;-67
2022/11/27 06:08:55;;;;;;;9.75;4.20;;;14.40;73.10;;;;;;5119190;28;20341;-67
2022/11/27 06:11:22;;;;;;;10.15;4.40;;;14.40;73.20;;;;;;5123777;28;20086;-67
2022/11/27 06:13:48;;;;;;;8.07;4.43;;;14.40;73.20;;;;;;5123733;28;20027;-67
2022/11/27 06:16:22;;;;;;;6.72;4.13;;;14.40;73.10;;;;;;5123563;28;20027;-67
2022/11/27 06:18:50;;;;;;;5.88;3.90;;;14.40;73.00;;;;;;5123576;28;20245;-67
2022/11/27 06:21:15;;;;;;;7.45;4.75;;;14.40;73.00;;;;;;5123577;28;20016;-67
2022/11/27 06:23:42;;;;;;;6.60;4.20;;;14.40;72.90;;;;;;5123564;28;20023;-67
2022/11/27 06:26:21;;;;;;;6.80;3.95;;;14.40;72.80;;;;;;5123508;28;20028;-67
2022/11/27 06:28:48;;;;;;;6.03;4.05;;;14.40;72.90;;;;;;5123434;28;20279;-67
2022/11/27 06:31:20;;;;;;;10.07;5.35;;;14.40;72.80;;;;;;5123382;28;20334;-67
2022/11/27 06:33:48;;;;;;;9.55;4.50;;;14.40;72.80;;;;;;5123350;28;20064;-67
2022/11/27 06:36:15;;;;;;;6.75;4.53;;;14.40;72.80;;;;;;5123292;28;20028;-67
2022/11/27 06:38:41;;;;;;;6.60;4.50;;;14.40;72.70;;;;;;5123251;28;20111;-67
2022/11/27 06:41:16;;;;;;;6.22;4.32;;;14.40;72.70;;;;;;5123213;28;20475;-66
2022/11/27 06:43:42;;;;;;;7.03;4.82;;;14.40;72.70;;;;;;5123184;28;20253;-67
2022/11/27 06:46:14;;;;;;;8.80;4.28;;;14.40;72.80;;;;;;5123128;28;20023;-66
2022/11/27 06:48:41;;;;;;;7.00;4.53;;;14.40;72.80;;;;;;5123062;28;20029;-68
2022/11/27 06:51:08;;;;;;;7.60;4.95;;;14.30;73.10;;;;;;5122955;28;20031;-67
2022/11/27 06:53:36;;;;;;;6.95;4.53;;;14.30;73.30;;;;;;5122962;28;20023;-67
2022/11/27 06:56:03;;;;;;;8.55;4.50;;;14.30;73.30;;;;;;5122697;28;20552;-68
2022/11/27 06:58:29;;;;;;;5.95;4.00;;;14.30;73.30;;;;;;5122815;28;20051;-67
2022/11/27 07:00:58;;;;;;;6.80;4.60;;;14.30;73.30;;;;;;5122751;28;20035;-67
2022/11/27 07:03:25;;;;;;;5.38;4.40;;;14.30;73.40;;;;;;5122750;28;20023;-67
2022/11/27 07:05:50;;;;;;;8.10;3.90;;;14.30;73.40;;;;;;5122705;28;20528;-67
2022/11/27 07:08:16;;;;;;;6.72;4.68;;;14.40;73.40;;;;;;5122618;28;20019;-67
2022/11/27 07:10:42;;;;;;;5.85;4.18;;;14.30;73.50;;;;;;5122630;28;20226;-67
2022/11/27 07:13:08;;;;;;;6.95;4.22;;;14.30;73.40;;;;;;5122476;28;20030;-67
2022/11/27 07:15:34;;;;;;;8.18;4.30;;;14.40;73.30;;;;;;5122229;28;20034;-67
2022/11/27 07:18:00;;;;;;;9.30;4.28;;;14.40;73.20;;;;;;5121950;28;20227;-67
2022/11/27 07:20:26;;;;;;;8.23;4.20;;;14.40;73.10;;;;;;5122413;28;20429;-67
2022/11/27 07:22:52;;;;;;;8.32;4.40;;;14.40;73.10;;;;;;5122384;28;20091;-67
2022/11/27 07:25:18;;;;;;;11.35;4.53;;;14.40;73.00;;;;;;5122330;28;20125;-67
2022/11/27 07:27:44;;;;;;;5.72;4.05;;;14.40;72.90;;;;;;5122268;28;20023;-67
2022/11/27 07:30:10;;;;;;;6.95;4.00;;;14.40;72.80;;;;;;5122224;28;20051;-67
2022/11/27 07:32:36;;;;;;;6.32;4.20;;;14.40;72.80;;;;;;5122219;28;20034;-67
2022/11/27 07:35:02;;;;;;;6.68;4.43;;;14.40;72.80;;;;;;5122086;28;20023;-68
2022/11/27 07:37:31;;;;;;;7.43;4.45;;;14.40;72.80;;;;;;5122099;28;20019;-67
2022/11/27 07:39:57;;;;;;;7.13;4.35;;;14.40;72.80;;;;;;5122053;28;20071;-66
2022/11/27 07:42:23;;;;;;;7.25;3.88;;;14.40;72.80;;;;;;5122037;28;20032;-67
2022/11/27 07:44:49;;;;;;;5.85;4.18;;;14.40;72.80;;;;;;5122021;28;20024;-67
2022/11/27 07:47:15;;;;;;;6.32;4.55;;;14.40;72.80;;;;;;5121975;28;20189;-66
2022/11/27 07:49:41;;;;;;;7.78;4.53;;;14.40;72.70;;;;;;5121975;28;20091;-67
2022/11/27 07:52:06;;;;;;;8.20;4.18;;;14.40;72.70;;;;;;5121987;28;20356;-67
2022/11/27 07:54:33;;;;;;;6.90;4.53;;;14.40;72.70;;;;;;5121643;28;20039;-67
2022/11/27 07:56:59;;;;;;;5.28;4.22;;;14.40;72.60;;;;;;5121904;28;20039;-67
2022/11/27 07:59:25;;;;;;;6.32;4.22;;;14.40;72.60;;;;;;5121848;28;20305;-67
2022/11/27 08:01:51;;;;;;;6.28;4.00;;;14.40;72.60;;;;;;5121852;28;20373;-67
2022/11/27 08:04:17;;;;;;;7.07;4.70;;;14.40;72.70;;;;;;5121758;28;20028;-66
2022/11/27 08:06:42;;;;;;;4.88;3.85;;;14.40;72.70;;;;;;5121783;28;20027;-67
2022/11/27 08:09:08;;;;;;;10.05;5.20;;;14.40;72.70;;;;;;5121723;28;20024;-66
2022/11/27 08:11:34;;;;;;;7.15;4.32;;;14.40;72.80;;;;;;5121738;28;20023;-67
2022/11/27 08:14:02;;;;;;;5.75;4.28;;;14.40;73.20;;;;;;5121644;28;20019;-67
2022/11/27 08:16:29;;;;;;;6.03;3.60;;;14.30;73.30;;;;;;5121612;28;20330;-67
2022/11/27 08:18:55;;;;;;;5.22;4.25;;;14.40;73.30;;;;;;5121571;28;20047;-67
2022/11/27 08:21:22;;;;;;;6.15;4.43;;;14.40;73.20;;;;;;5121615;28;20023;-67
2022/11/27 08:23:48;;;;;;;7.72;4.53;;;14.40;73.30;;;;;;5121579;28;20111;-66
2022/11/27 08:26:14;;;;;;;7.72;4.30;;;14.40;73.20;;;;;;5121516;28;20015;-69
2022/11/27 08:28:41;;;;;;;6.40;4.40;;;14.40;73.40;;;;;;5124226;28;20024;-66
2022/11/27 08:31:09;;;;;;;7.15;4.22;;;14.40;73.40;;;;;;5125741;28;20035;-67
2022/11/27 08:33:35;;;;;;;7.53;4.38;;;14.40;73.50;;;;;;5125713;28;20019;-67
2022/11/27 08:36:02;;;;;;;6.60;4.20;;;14.30;73.30;;;;;;5125516;28;20077;-67
2022/11/27 08:38:27;;;;;;;6.50;4.32;;;14.40;73.40;;;;;;5125662;28;20106;-66
2022/11/27 08:41:02;;;;;;;7.55;4.60;;;14.40;73.30;;;;;;5125519;28;20024;-68
2022/11/27 08:43:29;;;;;;;7.03;4.32;;;14.40;73.10;;;;;;5125537;28;20027;-67
2022/11/27 08:45:56;;;;;;;7.95;4.13;;;14.40;73.20;;;;;;5125505;28;20331;-67
2022/11/27 08:48:23;;;;;;;6.80;4.32;;;14.40;73.10;;;;;;5125386;28;20036;-67
2022/11/27 08:50:50;;;;;;;4.70;3.85;;;14.40;73.00;;;;;;5125404;28;20083;-67
2022/11/27 08:53:16;;;;;;;5.50;3.97;;;14.40;72.90;;;;;;5125284;28;20097;-67
2022/11/27 08:55:42;;;;;;;6.22;4.20;;;14.40;73.00;;;;;;5125056;28;20047;-67
2022/11/27 08:58:08;;;;;;;7.80;4.43;;;14.40;72.80;;;;;;5125268;28;20028;-66
2022/11/27 09:00:35;;;;;;;6.38;3.78;;;14.40;72.80;;;;;;5125143;28;20039;-67
2022/11/27 09:03:01;;;;;;;6.45;4.40;;;14.40;72.70;;;;;;5125122;28;20024;-67
2022/11/27 09:05:28;;;;;;;6.30;4.30;;;14.40;72.70;;;;;;5125009;28;20034;-67
2022/11/27 09:07:54;;;;;;;5.43;3.95;;;14.40;72.70;;;;;;5124987;28;20031;-67
2022/11/27 09:10:20;;;;;;;6.53;4.45;;;14.40;72.70;;;;;;5124958;28;20085;-67
2022/11/27 09:12:48;;;;;;;6.32;3.60;;;14.40;72.60;;;;;;5124912;28;20208;-66
2022/11/27 09:15:14;;;;;;;6.13;4.60;;;14.40;72.60;;;;;;5124766;28;20319;-66
2022/11/27 09:17:40;;;;;;;6.85;3.80;;;14.40;72.60;;;;;;5124869;28;20031;-67
2022/11/27 09:20:06;;;;;;;5.55;4.20;;;14.40;72.60;;;;;;5124780;28;20019;-67
2022/11/27 09:22:33;;;;;;;6.15;4.03;;;14.40;72.60;;;;;;5124736;28;20047;-67
2022/11/27 09:24:59;;;;;;;5.38;3.80;;;14.40;72.80;;;;;;5124786;28;20051;-67
2022/11/27 09:27:24;;;;;;;6.70;3.97;;;14.40;72.80;;;;;;5124646;28;20028;-67
2022/11/27 09:29:50;;;;;;;5.07;3.85;;;14.40;73.10;;;;;;5124605;28;20102;-67
2022/11/27 09:32:16;;;;;;;6.40;3.83;;;14.40;73.30;;;;;;5124475;28;20038;-67
2022/11/27 09:34:42;;;;;;;5.10;3.35;;;14.40;73.30;;;;;;5124443;28;20027;-67
2022/11/27 09:37:08;;;;;;;5.22;3.72;;;14.40;73.30;;;;;;5124468;28;20060;-66
2022/11/27 09:39:34;;;;;;;8.43;4.25;;;14.30;73.20;;;;;;5123555;28;20019;-67
2022/11/27 09:42:05;;;;;;;5.03;3.83;;;14.40;73.40;;;;;;5124397;28;20024;-67
2022/11/27 09:44:47;;;;;;;8.45;4.00;;;14.40;73.40;;;;;;5124260;28;20023;-67
2022/11/27 09:47:19;;;;;;;5.57;3.42;;;14.40;73.50;;;;;;5124294;28;20023;-68
2022/11/27 09:50:01;;;;;;;6.25;3.70;;;14.30;73.30;;;;;;5124136;28;20034;-67
2022/11/27 09:52:46;;;;;;;6.78;4.25;;;14.40;73.20;;;;;;5124053;28;20034;-67
2022/11/27 09:55:31;;;;;;;5.28;4.18;;;14.40;73.20;;;;;;5123807;28;20040;-66
2022/11/27 09:58:35;;;;;;;4.80;3.47;;;14.40;73.10;;;;;;5124055;28;20082;-67
2022/11/27 10:01:08;;;;;;;4.65;3.55;;;14.40;73.10;;;;;;5124009;28;20015;-67
2022/11/27 10:03:34;;;;;;;6.80;3.55;;;14.40;73.10;;;;;;5124021;28;20053;-67
2022/11/27 10:06:19;;;;;;;5.47;4.00;;;14.40;73.10;;;;;;5123983;28;20086;-67
2022/11/27 10:09:00;;;;;;;5.78;3.55;;;14.40;73.00;;;;;;5123885;28;20076;-67
2022/11/27 10:11:32;;;;;;;6.20;3.70;;;14.40;73.00;;;;;;5123875;28;20091;-67
2022/11/27 10:14:35;;;;;;;5.18;3.75;;;14.40;73.00;;;;;;5123743;28;20376;-67
2022/11/27 10:17:21;;;;;;;6.80;3.95;;;14.40;72.80;;;;;;5123691;28;20038;-66
2022/11/27 10:19:49;;;;;;;4.88;3.97;;;14.40;72.90;;;;;;5122943;28;20042;-67
2022/11/27 10:22:38;;;;;;;4.85;3.50;;;14.40;72.80;;;;;;5123620;28;20031;-67
2022/11/27 10:25:43;;;;;;;4.40;3.38;;;14.40;72.80;;;;;;5123658;28;20031;-68
2022/11/27 10:28:09;;;;;;;6.03;4.35;;;14.40;72.70;;;;;;5105116;28;20026;-67
2022/11/27 10:30:49;;;;;;;5.05;3.80;;;14.40;72.80;;;;;;5105076;28;20027;-67
2022/11/27 10:33:21;;;;;;;7.28;4.10;;;14.40;72.80;;;;;;5123381;28;20024;-67
2022/11/27 10:35:48;;;;;;;6.90;4.15;;;14.40;72.70;;;;;;5123242;28;20467;-67
2022/11/27 10:38:19;;;;;;;4.88;3.70;;;14.40;72.80;;;;;;5123256;28;20030;-67
2022/11/27 10:41:06;;;;;;;4.85;3.63;;;14.40;72.80;;;;;;5123289;28;20030;-67
2022/11/27 10:43:32;;;;;;;5.97;3.60;;;14.40;73.00;;;;;;5123220;28;20011;-67
2022/11/27 10:46:01;;;;;;;5.72;3.70;;;14.40;73.20;;;;;;5123122;28;20032;-67
2022/11/27 10:48:28;;;;;;;7.00;4.45;;;14.40;73.10;;;;;;5123102;28;20023;-67
2022/11/27 10:50:54;;;;;;;7.45;3.88;;;14.40;73.10;;;;;;5123051;28;20051;-67
2022/11/27 10:53:30;;;;;;;5.80;3.95;;;14.40;73.00;;;;;;5122973;28;20053;-67
2022/11/27 10:56:32;;;;;;;5.93;3.97;;;14.40;73.00;;;;;;5122713;28;20107;-67
2022/11/27 10:59:41;;;;;;;4.88;3.55;;;14.40;72.90;;;;;;5122900;28;20249;-67
2022/11/27 11:02:31;;;;;;;5.25;4.03;;;14.40;73.10;;;;;;5020087;28;20030;-67
2022/11/27 11:04:57;;;;;;;4.50;3.70;;;14.40;73.10;;;;;;5020106;28;20037;-67
2022/11/27 11:07:28;;;;;;;5.53;3.80;;;14.40;73.10;;;;;;5088047;28;20035;-67
2022/11/27 11:09:55;;;;;;;5.68;3.97;;;14.40;73.00;;;;;;5122690;28;20031;-67
2022/11/27 11:12:22;;;;;;;5.25;4.00;;;14.40;73.00;;;;;;5122583;28;20028;-67
2022/11/27 11:14:54;;;;;;;5.72;3.78;;;14.40;72.90;;;;;;5122433;28;20028;-67
2022/11/27 11:17:29;;;;;;;5.60;3.55;;;14.40;72.90;;;;;;5122503;28;20039;-66
2022/11/27 11:19:55;;;;;;;6.32;4.28;;;14.40;72.80;;;;;;5122413;28;20035;-67
2022/11/27 11:22:21;;;;;;;6.20;3.97;;;14.40;72.90;;;;;;5122281;28;20019;-67
2022/11/27 11:24:49;;;;;;;4.25;3.38;;;14.40;72.90;;;;;;5122259;28;20030;-67
2022/11/27 11:27:24;;;;;;;5.40;3.70;;;14.40;72.80;;;;;;5122350;28;20023;-67
2022/11/27 11:30:00;;;;;;;4.88;4.30;;;14.40;72.80;;;;;;5122325;28;20336;-67
2022/11/27 11:32:32;;;;;;;5.63;3.88;;;14.40;72.70;;;;;;5122309;28;20051;-67
2022/11/27 11:35:33;;;;;;;5.70;3.42;;;14.40;72.70;;;;;;5122127;28;20105;-67
2022/11/27 11:38:02;;;;;;;6.32;4.25;;;14.40;72.60;;;;;;5115531;28;20031;-67
2022/11/27 11:40:33;;;;;;;4.63;3.35;;;14.40;72.70;;;;;;5122093;28;20016;-67
2022/11/27 11:43:08;;;;;;;111.45;15.95;;;14.40;72.70;;;;;;5122049;28;20019;-70
2022/11/27 11:45:44;;;;;;;54.92;17.58;;;14.40;68.40;;;;;;5122084;28;20023;-71
2022/11/27 11:48:25;;;;;;;43.72;17.35;;;14.10;64.00;;;;;;5122058;28;20034;-70
2022/11/27 11:51:03;;;;;;;40.22;15.48;;;13.80;64.10;;;;;;5121960;28;20055;-71
2022/11/27 11:53:36;;;;;;;30.50;10.43;;;13.90;66.00;;;;;;5122019;28;20072;-70
2022/11/27 11:56:05;;;;;;;25.40;8.10;;;14.10;66.50;;;;;;5121661;28;20335;-70
2022/11/27 11:58:33;;;;;;;;;;;14.20;69.90;;;;;;5122457;28;20036;-71
2022/11/27 12:01:25;;;;;;;22.70;8.48;;;14.20;70.80;;;;;;5122170;28;20021;-67
2022/11/27 12:04:15;;;;;;;21.70;9.10;;;14.20;71.30;;;;;;5116548;28;20043;-68
2022/11/27 12:07:05;;;;;;;27.50;9.02;;;14.30;71.40;;;;;;5121768;28;20031;-69
2022/11/27 12:09:59;;;;;;;24.77;10.15;;;14.20;71.70;;;;;;5121769;28;20051;-68
2022/11/27 12:12:27;;;;;;;29.45;10.63;;;14.30;71.60;;;;;;5121801;28;20072;-69
2022/11/27 12:37:44;;;;;;;26.98;12.18;;;14.30;74.10;;;;;;5141309;27;20405;-67
2022/11/27 12:40:22;;;;;;;21.35;10.73;;;14.50;72.00;;;;;;5141002;28;20341;-68
2022/11/27 12:43:26;;;;;;;35.60;13.27;;;14.40;72.50;;;;;;5141207;28;20027;-67
2022/11/27 12:46:10;;;;;;;22.02;11.10;;;14.30;72.60;;;;;;5140812;28;20020;-69
2022/11/27 12:48:42;;;;;;;26.02;11.77;;;14.40;72.40;;;;;;5140970;28;20303;-67
2022/11/27 12:51:20;;;;;;;25.75;10.65;;;14.30;72.60;;;;;;5140991;28;20019;-67
2022/11/27 12:54:02;;;;;;;24.03;9.93;;;14.30;72.60;;;;;;5140921;28;20015;-68
2022/11/27 13:42:30;;;;;;;25.63;10.02;;;13.80;79.20;;;;;;5141514;27;20368;-68
2022/11/27 13:45:02;;;;;;;19.95;9.63;;;14.30;75.10;;;;;;5141792;28;20039;-71
2022/11/27 13:47:35;;;;;;;30.73;11.65;;;14.30;75.60;;;;;;5122834;28;20202;-67
2022/11/27 13:50:06;;;;;;;28.65;10.55;;;14.30;76.10;;;;;;5141068;28;20022;-68
2022/11/27 13:52:34;;;;;;;24.15;10.88;;;14.30;75.80;;;;;;5140998;28;20007;-68
2022/11/27 13:55:02;;;;;;;32.60;10.43;;;14.30;75.20;;;;;;5140951;28;20385;-68
2022/11/27 13:57:29;;;;;;;18.58;9.50;;;14.40;74.80;;;;;;5141093;28;20026;-67
2022/11/27 13:59:57;;;;;;;21.50;10.15;;;14.40;73.50;;;;;;5140590;28;20039;-68
2022/11/27 14:02:25;;;;;;;25.33;9.07;;;14.40;72.20;;;;;;5140633;28;20015;-67
2022/11/27 14:04:52;;;;;;;24.05;9.75;;;14.50;71.80;;;;;;5140964;28;20019;-66
2022/11/27 14:07:19;;;;;;;25.60;9.45;;;14.60;71.50;;;;;;5140936;28;20203;-67
2022/11/27 14:09:54;;;;;;;22.05;8.73;;;14.50;72.60;;;;;;5141065;28;20078;-68